createdAt,value
2018-05-24T00:00:55.452Z,102141.11
2018-05-24T00:03:23.640Z,102137.91
2018-05-24T00:05:52.210Z,102141.67
2018-05-24T00:08:20.434Z,102140.91
2018-05-24T00:10:48.782Z,102139.08
2018-05-24T00:13:17.013Z,102141.87
2018-05-24T00:15:45.153Z,102138.61
2018-05-24T00:18:12.728Z,102135.95
2018-05-24T00:20:40.909Z,102132.13
2018-05-24T00:23:09.082Z,102135.80
2018-05-24T00:25:37.309Z,102143.13
2018-05-24T00:28:04.856Z,102144.93
2018-05-24T00:30:32.404Z,102146.14
2018-05-24T00:32:59.969Z,102151.05
2018-05-24T00:35:28.075Z,102155.36
2018-05-24T00:37:56.214Z,102153.62
2018-05-24T00:40:24.594Z,102151.90
2018-05-24T00:42:52.146Z,102161.41
2018-05-24T00:45:19.889Z,102161.53
2018-05-24T00:47:48.232Z,102152.46
2018-05-24T00:50:16.820Z,102153.27
2018-05-24T00:52:44.496Z,102150.44
2018-05-24T00:55:24.902Z,102153.81
2018-05-24T01:00:50.550Z,102173.81
2018-05-24T01:03:18.125Z,102175.23
2018-05-24T01:05:46.768Z,102180.05
2018-05-24T01:08:14.848Z,102181.01
2018-05-24T01:10:43.132Z,102179.45
2018-05-24T01:13:11.400Z,102191.27
2018-05-24T01:15:39.523Z,102193.23
2018-05-24T01:18:09.125Z,102194.91
2018-05-24T01:20:36.705Z,102193.59
2018-05-24T01:23:04.240Z,102191.55
2018-05-24T01:25:32.579Z,102187.11
2018-05-24T01:28:00.133Z,102194.19
2018-05-24T01:30:28.553Z,102198.77
2018-05-24T01:32:56.149Z,102201.59
2018-05-24T01:35:24.219Z,102201.02
2018-05-24T01:37:51.778Z,102199.09
2018-05-24T01:40:20.114Z,102199.23
2018-05-24T01:42:48.874Z,102191.60
2018-05-24T01:45:16.980Z,102194.55
2018-05-24T01:47:44.530Z,102188.27
2018-05-24T01:50:12.103Z,102196.30
2018-05-24T01:52:39.647Z,102192.78
2018-05-24T01:55:07.179Z,102198.09
2018-05-24T01:57:35.462Z,102193.30
2018-05-24T02:00:03.021Z,102188.14
2018-05-24T02:02:30.618Z,102190.34
2018-05-24T02:04:58.927Z,102187.08
2018-05-24T02:07:27.325Z,102184.65
2018-05-24T02:09:55.481Z,102190.82
2018-05-24T02:12:23.179Z,102186.20
2018-05-24T02:14:52.516Z,102190.50
2018-05-24T02:17:20.071Z,102192.44
2018-05-24T02:19:48.852Z,102190.42
2018-05-24T02:22:17.925Z,102189.76
2018-05-24T02:24:47.211Z,102190.55
2018-05-24T02:27:14.760Z,102193.42
2018-05-24T02:29:42.945Z,102193.89
2018-05-24T02:32:10.484Z,102200.11
2018-05-24T02:34:38.031Z,102208.23
2018-05-24T02:37:06.098Z,102208.41
2018-05-24T02:39:34.098Z,102206.39
2018-05-24T02:42:01.649Z,102205.30
2018-05-24T02:44:29.224Z,102201.52
2018-05-24T02:46:57.543Z,102199.10
2018-05-24T02:49:25.078Z,102194.86
2018-05-24T02:51:52.958Z,102202.70
2018-05-24T02:54:20.522Z,102210.84
2018-05-24T02:56:48.089Z,102209.50
2018-05-24T02:59:15.643Z,102211.39
2018-05-24T03:01:43.906Z,102211.52
2018-05-24T03:04:11.462Z,102213.00
2018-05-24T03:06:39.332Z,102209.17
2018-05-24T03:09:07.698Z,102217.00
2018-05-24T03:11:35.238Z,102215.59
2018-05-24T03:14:03.594Z,102217.66
2018-05-24T03:16:31.943Z,102220.05
2018-05-24T03:19:00.196Z,102223.72
2018-05-24T03:21:27.789Z,102225.02
2018-05-24T03:23:55.915Z,102225.53
2018-05-24T03:26:23.459Z,102225.69
2018-05-24T03:28:51.007Z,102222.89
2018-05-24T03:31:19.133Z,102219.09
2018-05-24T03:33:48.258Z,102224.26
2018-05-24T03:36:17.083Z,102220.10
2018-05-24T03:38:44.639Z,102226.58
2018-05-24T03:41:12.761Z,102228.00
2018-05-24T03:43:40.823Z,102236.55
2018-05-24T03:46:08.366Z,102242.95
2018-05-24T03:48:36.499Z,102239.84
2018-05-24T03:51:04.238Z,102242.73
2018-05-24T03:53:31.827Z,102238.05
2018-05-24T03:55:59.492Z,102242.44
2018-05-24T03:58:27.023Z,102233.48
2018-05-24T04:01:07.199Z,102243.16
2018-05-24T04:03:48.466Z,102236.95
2018-05-24T04:06:16.771Z,102240.72
2018-05-24T04:08:44.970Z,102243.58
2018-05-24T04:11:13.455Z,102248.06
2018-05-24T04:13:41.786Z,102249.73
2018-05-24T04:16:09.709Z,102251.66
2018-05-24T04:18:38.055Z,102255.57
2018-05-24T04:21:06.052Z,102260.91
2018-05-24T04:23:33.671Z,102257.37
2018-05-24T04:26:01.915Z,102263.17
2018-05-24T04:28:29.500Z,102258.72
2018-05-24T04:30:57.597Z,102266.84
2018-05-24T04:33:25.142Z,102265.39
2018-05-24T04:35:53.454Z,102268.48
2018-05-24T04:38:21.023Z,102267.84
2018-05-24T04:40:49.419Z,102265.17
2018-05-24T04:43:17.793Z,102268.09
2018-05-24T04:45:46.390Z,102273.09
2018-05-24T04:48:13.975Z,102269.66
2018-05-24T04:50:41.506Z,102266.75
2018-05-24T04:53:09.723Z,102260.48
2018-05-24T04:55:37.295Z,102261.31
2018-05-24T04:58:04.830Z,102265.34
2018-05-24T05:00:32.412Z,102265.75
2018-05-24T05:02:59.985Z,102263.91
2018-05-24T05:05:28.251Z,102265.03
2018-05-24T05:07:56.768Z,102266.07
2018-05-24T05:10:24.769Z,102266.07
2018-05-24T05:12:52.578Z,102263.27
2018-05-24T05:15:21.275Z,102262.97
2018-05-24T05:17:48.814Z,102265.59
2018-05-24T05:20:17.832Z,102264.63
2018-05-24T05:22:45.588Z,102261.27
2018-05-24T05:25:13.794Z,102264.52
2018-05-24T05:27:42.270Z,102262.08
2018-05-24T05:30:10.261Z,102261.34
2018-05-24T05:32:37.791Z,102267.06
2018-05-24T05:35:05.331Z,102269.98
2018-05-24T05:37:34.037Z,102272.55
2018-05-24T05:40:02.159Z,102270.73
2018-05-24T05:42:29.694Z,102272.73
2018-05-24T05:44:57.273Z,102278.95
2018-05-24T05:47:24.819Z,102278.28
2018-05-24T05:49:52.438Z,102275.23
2018-05-24T05:52:20.023Z,102278.22
2018-05-24T05:54:48.607Z,102273.70
2018-05-24T05:57:17.931Z,102280.86
2018-05-24T05:59:47.099Z,102287.64
2018-05-24T06:02:14.634Z,102290.45
2018-05-24T06:04:43.619Z,102294.53
2018-05-24T06:07:11.974Z,102299.89
2018-05-24T06:09:40.191Z,102303.02
2018-05-24T06:12:08.535Z,102305.56
2018-05-24T06:14:36.602Z,102302.04
2018-05-24T06:17:04.140Z,102302.92
2018-05-24T06:19:32.323Z,102304.41
2018-05-24T06:21:59.994Z,102302.50
2018-05-24T06:24:28.268Z,102307.66
2018-05-24T06:26:55.822Z,102299.78
2018-05-24T06:29:24.465Z,102302.38
2018-05-24T06:31:52.659Z,102300.22
2018-05-24T06:34:20.222Z,102305.89
2018-05-24T06:36:48.472Z,102298.55
2018-05-24T06:39:16.578Z,102310.38
2018-05-24T06:41:44.787Z,102304.70
2018-05-24T06:44:13.243Z,102300.52
2018-05-24T06:46:40.802Z,102299.88
2018-05-24T06:49:08.343Z,102295.03
2018-05-24T06:51:35.922Z,102298.28
2018-05-24T06:54:03.467Z,102294.80
2018-05-24T06:56:31.007Z,102299.92
2018-05-24T06:58:58.582Z,102306.36
2018-05-24T07:01:26.866Z,102311.23
2018-05-24T07:03:55.274Z,102305.72
2018-05-24T07:06:23.387Z,102314.16
2018-05-24T07:08:51.594Z,102314.72
2018-05-24T07:11:20.027Z,102322.48
2018-05-24T07:13:48.423Z,102323.84
2018-05-24T07:16:16.875Z,102333.45
2018-05-24T07:18:45.084Z,102320.23
2018-05-24T07:21:12.639Z,102322.94
2018-05-24T07:23:40.191Z,102315.23
2018-05-24T07:26:08.495Z,102307.48
2018-05-24T07:28:36.041Z,102317.73
2018-05-24T07:31:03.990Z,102319.38
2018-05-24T07:33:31.531Z,102321.38
2018-05-24T07:35:59.584Z,102329.20
2018-05-24T07:38:27.201Z,102326.58
2018-05-24T07:40:55.577Z,102327.30
2018-05-24T07:43:24.169Z,102331.94
2018-05-24T07:45:51.920Z,102321.80
2018-05-24T07:48:19.519Z,102318.09
2018-05-24T07:50:48.323Z,102326.13
2018-05-24T07:53:16.791Z,102320.70
2018-05-24T07:55:44.759Z,102321.70
2018-05-24T07:58:12.283Z,102315.15
2018-05-24T08:00:40.700Z,102309.98
2018-05-24T08:03:08.239Z,102310.03
2018-05-24T08:05:36.501Z,102314.73
2018-05-24T08:08:04.784Z,102310.92
2018-05-24T08:10:34.134Z,102310.69
2018-05-24T08:13:01.758Z,102306.41
2018-05-24T08:15:29.995Z,102307.58
2018-05-24T08:17:57.578Z,102306.02
2018-05-24T08:20:25.898Z,102301.45
2018-05-24T08:22:53.453Z,102299.70
2018-05-24T08:25:21.947Z,102300.06
2018-05-24T08:27:49.499Z,102298.92
2018-05-24T08:30:18.244Z,102297.73
2018-05-24T08:32:46.074Z,102302.20
2018-05-24T08:35:13.977Z,102307.79
2018-05-24T08:37:42.063Z,102313.53
2018-05-24T08:40:10.603Z,102309.48
2018-05-24T08:42:38.181Z,102306.05
2018-05-24T08:45:05.744Z,102300.48
2018-05-24T08:47:33.328Z,102303.43
2018-05-24T08:50:00.867Z,102302.43
2018-05-24T08:52:28.407Z,102300.70
2018-05-24T08:54:55.980Z,102295.48
2018-05-24T08:57:25.110Z,102301.19
2018-05-24T08:59:53.232Z,102296.32
2018-05-24T09:02:20.767Z,102290.91
2018-05-24T09:04:48.305Z,102293.00
2018-05-24T09:07:16.991Z,102287.16
2018-05-24T09:09:45.071Z,102281.98
2018-05-24T09:12:12.607Z,102275.20
2018-05-24T09:14:41.191Z,102278.23
2018-05-24T09:17:08.722Z,102278.02
2018-05-24T09:19:37.115Z,102280.52
2018-05-24T09:22:04.659Z,102274.77
2018-05-24T09:24:33.558Z,102280.83
2018-05-24T09:27:01.097Z,102279.73
2018-05-24T09:29:28.715Z,102269.77
2018-05-24T09:31:56.790Z,102275.59
2018-05-24T09:34:25.323Z,102275.54
2018-05-24T09:36:54.005Z,102268.28
2018-05-24T09:39:21.587Z,102265.84
2018-05-24T09:41:49.591Z,102272.80
2018-05-24T09:44:17.256Z,102276.59
2018-05-24T09:46:44.800Z,102268.94
2018-05-24T09:49:12.364Z,102259.70
2018-05-24T09:51:39.964Z,102254.02
2018-05-24T09:54:07.516Z,102263.49
2018-05-24T09:56:35.655Z,102264.61
2018-05-24T09:59:03.215Z,102254.39
2018-05-24T10:01:30.808Z,102256.10
2018-05-24T10:03:58.381Z,102249.61
2018-05-24T10:06:26.518Z,102248.23
2018-05-24T10:08:55.503Z,102240.63
2018-05-24T10:11:26.930Z,102243.62
2018-05-24T10:13:54.679Z,102240.09
2018-05-24T10:16:23.534Z,102242.69
2018-05-24T10:18:51.574Z,102237.70
2018-05-24T10:21:19.120Z,102241.07
2018-05-24T10:23:48.207Z,102233.59
2018-05-24T10:26:15.996Z,102229.19
2018-05-24T10:32:14.227Z,102228.83
2018-05-24T10:34:41.766Z,102234.94
2018-05-24T10:37:09.895Z,102234.98
2018-05-24T10:39:37.968Z,102229.38
2018-05-24T10:42:06.339Z,102232.86
2018-05-24T10:44:33.884Z,102224.88
2018-05-24T10:47:01.438Z,102228.45
2018-05-24T10:49:29.027Z,102225.81
2018-05-24T10:51:56.578Z,102221.53
2018-05-24T10:54:25.198Z,102217.06
2018-05-24T10:56:52.734Z,102221.85
2018-05-24T10:59:20.266Z,102219.30
2018-05-24T11:01:47.911Z,102212.70
2018-05-24T11:04:15.545Z,102209.72
2018-05-24T11:06:43.817Z,102206.90
2018-05-24T11:09:12.212Z,102199.99
2018-05-24T11:11:39.808Z,102204.78
2018-05-24T11:14:07.285Z,102195.38
2018-05-24T11:16:35.278Z,102207.52
2018-05-24T11:19:03.386Z,102192.42
2018-05-24T11:21:30.957Z,102193.30
2018-05-24T11:23:59.408Z,102195.80
2018-05-24T11:26:26.955Z,102190.09
2018-05-24T11:28:54.660Z,102187.52
2018-05-24T11:31:23.162Z,102186.13
2018-05-24T11:33:50.703Z,102184.98
2018-05-24T11:36:18.825Z,102183.73
2018-05-24T11:38:46.911Z,102178.78
2018-05-24T11:41:15.145Z,102177.72
2018-05-24T11:43:42.683Z,102180.45
2018-05-24T11:46:10.233Z,102172.31
2018-05-24T11:48:37.807Z,102166.17
2018-05-24T11:51:06.073Z,102167.03
2018-05-24T11:53:33.636Z,102168.84
2018-05-24T11:56:01.191Z,102164.10
2018-05-24T11:58:28.777Z,102157.28
2018-05-24T12:00:56.391Z,102154.28
2018-05-24T12:03:24.658Z,102151.86
2018-05-24T12:05:53.375Z,102144.42
2018-05-24T12:08:21.799Z,102144.97
2018-05-24T12:10:49.956Z,102146.89
2018-05-24T12:13:18.490Z,102134.13
2018-05-24T12:15:47.145Z,102142.86
2018-05-24T12:18:15.793Z,102138.59
2018-05-24T12:20:43.338Z,102132.98
2018-05-24T12:23:10.873Z,102131.74
2018-05-24T12:25:38.939Z,102127.26
2018-05-24T12:28:07.241Z,102129.13
2018-05-24T12:30:35.317Z,102122.95
2018-05-24T12:33:02.872Z,102122.11
2018-05-24T12:35:31.378Z,102118.45
2018-05-24T12:37:58.909Z,102117.67
2018-05-24T12:40:27.796Z,102115.48
2018-05-24T12:42:55.363Z,102108.20
2018-05-24T12:45:23.865Z,102104.07
2018-05-24T12:47:51.478Z,102112.48
2018-05-24T12:50:19.869Z,102104.91
2018-05-24T12:52:47.786Z,102100.34
2018-05-24T12:55:16.811Z,102106.12
2018-05-24T12:57:44.389Z,102106.55
2018-05-24T13:00:11.931Z,102107.23
2018-05-24T13:02:39.511Z,102098.57
2018-05-24T13:05:07.788Z,102100.77
2018-05-24T13:07:35.814Z,102095.02
2018-05-24T13:10:04.075Z,102089.67
2018-05-24T13:12:31.651Z,102088.72
2018-05-24T13:14:59.810Z,102083.09
2018-05-24T13:17:27.435Z,102083.35
2018-05-24T13:19:55.776Z,102087.72
2018-05-24T13:22:23.418Z,102083.84
2018-05-24T13:24:51.468Z,102075.59
2018-05-24T13:27:19.005Z,102075.20
2018-05-24T13:29:47.987Z,102067.77
2018-05-24T13:32:15.602Z,102073.55
2018-05-24T13:34:43.187Z,102067.21
2018-05-24T13:37:11.359Z,102055.26
2018-05-24T13:39:39.362Z,102052.36
2018-05-24T13:42:06.893Z,102054.31
2018-05-24T13:44:34.426Z,102054.47
2018-05-24T13:47:02.552Z,102055.28
2018-05-24T13:49:30.255Z,102048.55
2018-05-24T13:51:57.802Z,102044.42
2018-05-24T13:54:25.397Z,102043.45
2018-05-24T13:56:53.539Z,102045.79
2018-05-24T13:59:21.083Z,102036.71
2018-05-24T14:01:48.619Z,102041.40
2018-05-24T14:04:16.538Z,102039.19
2018-05-24T14:06:44.614Z,102039.30
2018-05-24T14:09:12.610Z,102040.68
2018-05-24T14:11:40.848Z,102036.28
2018-05-24T14:14:08.387Z,102032.86
2018-05-24T14:16:36.438Z,102024.20
2018-05-24T14:19:04.596Z,102033.15
2018-05-24T14:21:32.143Z,102029.14
2018-05-24T14:24:00.162Z,102028.88
2018-05-24T14:26:27.719Z,102031.59
2018-05-24T14:28:55.250Z,102028.44
2018-05-24T14:31:26.174Z,102021.28
2018-05-24T14:33:53.723Z,102023.07
2018-05-24T14:36:21.984Z,102023.17
2018-05-24T14:38:49.507Z,102015.61
2018-05-24T14:41:18.175Z,102026.23
2018-05-24T14:43:46.396Z,102021.44
2018-05-24T14:46:14.539Z,102018.00
2018-05-24T14:48:42.084Z,102009.74
2018-05-24T14:51:09.615Z,102014.00
2018-05-24T14:53:37.271Z,102006.30
2018-05-24T14:56:04.831Z,101999.70
2018-05-24T14:58:32.434Z,102010.57
2018-05-24T15:01:00.004Z,102005.89
2018-05-24T15:03:27.544Z,102004.66
2018-05-24T15:05:55.455Z,102001.35
2018-05-24T15:08:24.177Z,102004.79
2018-05-24T15:10:52.408Z,102004.79
2018-05-24T15:13:31.831Z,101993.78
2018-05-24T15:15:59.874Z,101987.73
2018-05-24T15:18:28.017Z,101993.25
2018-05-24T15:20:55.556Z,101984.31
2018-05-24T15:23:23.159Z,101991.97
2018-05-24T15:25:51.222Z,101989.34
2018-05-24T15:28:19.150Z,101982.97
2018-05-24T15:30:47.276Z,101985.52
2018-05-24T15:33:14.822Z,101987.09
2018-05-24T15:35:44.067Z,101978.77
2018-05-24T15:38:11.623Z,101979.83
2018-05-24T15:40:39.814Z,101986.02
2018-05-24T15:43:08.172Z,101980.23
2018-05-24T15:45:35.736Z,101984.20
2018-05-24T15:48:03.272Z,101991.59
2018-05-24T15:50:30.869Z,101985.55
2018-05-24T15:52:58.411Z,101995.86
2018-05-24T15:55:26.025Z,101981.58
2018-05-24T15:57:54.938Z,101996.63
2018-05-24T16:00:22.472Z,101989.49
2018-05-24T16:02:50.015Z,101991.42
2018-05-24T16:05:18.459Z,101988.67
2018-05-24T16:07:46.870Z,101983.56
2018-05-24T16:10:15.435Z,101986.77
2018-05-24T16:12:43.144Z,101983.48
2018-05-24T16:15:11.350Z,101983.55
2018-05-24T16:17:38.900Z,101989.09
2018-05-24T16:20:06.840Z,101985.87
2018-05-24T16:22:34.383Z,101992.05
2018-05-24T16:25:02.419Z,101984.31
2018-05-24T16:27:30.773Z,101985.95
2018-05-24T16:29:58.858Z,101984.68
2018-05-24T16:32:26.404Z,101984.72
2018-05-24T16:34:53.997Z,101984.25
2018-05-24T16:37:22.023Z,101984.24
2018-05-24T16:39:50.278Z,101987.91
2018-05-24T16:42:18.274Z,101984.46
2018-05-24T16:44:46.395Z,101980.13
2018-05-24T16:47:13.973Z,101972.39
2018-05-24T16:49:41.514Z,101974.75
2018-05-24T16:52:09.171Z,101982.13
2018-05-24T16:54:36.757Z,101974.37
2018-05-24T16:57:04.321Z,101972.98
2018-05-24T16:59:31.854Z,101972.99
2018-05-24T17:01:59.427Z,101970.64
2018-05-24T17:04:28.216Z,101963.86
2018-05-24T17:06:56.582Z,101967.95
2018-05-24T17:09:25.659Z,101971.84
2018-05-24T17:11:53.994Z,101970.02
2018-05-24T17:14:22.198Z,101970.14
2018-05-24T17:16:49.828Z,101976.31
2018-05-24T17:19:18.143Z,101971.78
2018-05-24T17:21:45.715Z,101966.25
2018-05-24T17:24:14.106Z,101971.08
2018-05-24T17:26:41.639Z,101971.75
2018-05-24T17:29:09.920Z,101975.77
2018-05-24T17:31:37.939Z,101972.89
2018-05-24T17:34:05.483Z,101965.75
2018-05-24T17:36:33.867Z,101973.06
2018-05-24T17:39:01.843Z,101967.08
2018-05-24T17:41:30.006Z,101965.73
2018-05-24T17:43:57.542Z,101968.45
2018-05-24T17:46:25.089Z,101970.04
2018-05-24T17:48:52.759Z,101975.33
2018-05-24T17:51:20.305Z,101975.05
2018-05-24T17:53:48.558Z,101974.55
2018-05-24T17:56:16.815Z,101973.52
2018-05-24T17:58:44.351Z,101975.20
2018-05-24T18:01:11.888Z,101972.50
2018-05-24T18:03:39.573Z,101973.20
2018-05-24T18:06:08.058Z,101967.93
2018-05-24T18:08:36.669Z,101967.67
2018-05-24T18:11:05.319Z,101971.42
2018-05-24T18:13:32.935Z,101968.91
2018-05-24T18:16:01.035Z,101970.62
2018-05-24T18:18:29.292Z,101980.03
2018-05-24T18:20:56.820Z,101975.41
2018-05-24T18:23:24.614Z,101971.91
2018-05-24T18:25:53.676Z,101972.56
2018-05-24T18:28:21.839Z,101976.53
2018-05-24T18:30:50.086Z,101975.84
2018-05-24T18:33:18.003Z,101985.81
2018-05-24T18:35:46.384Z,101983.19
2018-05-24T18:38:14.436Z,101977.84
2018-05-24T18:40:42.687Z,101983.11
2018-05-24T18:43:10.224Z,101981.05
2018-05-24T18:45:37.755Z,101976.66
2018-05-24T18:48:05.318Z,101978.38
2018-05-24T18:50:32.990Z,101971.94
2018-05-24T18:53:00.544Z,101979.69
2018-05-24T18:55:28.430Z,101978.30
2018-05-24T18:57:55.980Z,101987.78
2018-05-24T19:00:23.590Z,101984.59
2018-05-24T19:02:51.159Z,101992.64
2018-05-24T19:05:19.395Z,101990.82
2018-05-24T19:07:48.265Z,101996.01
2018-05-24T19:10:17.460Z,101991.52
2018-05-24T19:12:45.007Z,102002.58
2018-05-24T19:15:13.290Z,101994.77
2018-05-24T19:17:40.855Z,101998.87
2018-05-24T19:20:09.064Z,102000.67
2018-05-24T19:22:36.654Z,102003.50
2018-05-24T19:25:05.069Z,102011.02
2018-05-24T19:27:33.380Z,102006.66
2018-05-24T19:30:01.632Z,102010.34
2018-05-24T19:32:30.108Z,102012.91
2018-05-24T19:34:57.651Z,102013.95
2018-05-24T19:37:25.822Z,102016.31
2018-05-24T19:39:53.954Z,102019.75
2018-05-24T19:42:22.192Z,102016.11
2018-05-24T19:44:49.747Z,102020.70
2018-05-24T19:47:17.354Z,102020.91
2018-05-24T19:49:44.939Z,102021.67
2018-05-24T19:52:12.476Z,102019.22
2018-05-24T19:54:40.143Z,102022.36
2018-05-24T19:57:07.726Z,102025.67
2018-05-24T19:59:35.382Z,102023.13
2018-05-24T20:02:03.053Z,102033.30
2018-05-24T20:04:30.694Z,102034.29
2018-05-24T20:06:59.016Z,102037.32
2018-05-24T20:09:27.390Z,102030.42
2018-05-24T20:11:55.052Z,102032.38
2018-05-24T20:14:24.204Z,102032.16
2018-05-24T20:16:51.759Z,102034.23
2018-05-24T20:19:20.216Z,102033.17
2018-05-24T20:21:48.642Z,102039.97
2018-05-24T20:24:17.234Z,102044.23
2018-05-24T20:26:45.835Z,102039.31
2018-05-24T20:29:14.035Z,102042.49
2018-05-24T20:31:42.240Z,102038.03
2018-05-24T20:34:09.796Z,102041.23
2018-05-24T20:36:38.300Z,102035.68
2018-05-24T20:39:06.890Z,102038.98
2018-05-24T20:41:35.202Z,102036.20
2018-05-24T20:44:02.751Z,102037.00
2018-05-24T20:46:30.364Z,102034.77
2018-05-24T20:48:57.921Z,102036.03
2018-05-24T20:51:25.474Z,102044.20
2018-05-24T20:53:53.140Z,102046.08
2018-05-24T20:56:20.783Z,102042.68
2018-05-24T20:58:48.310Z,102043.41
2018-05-24T21:01:16.529Z,102048.75
2018-05-24T21:03:44.118Z,102041.48
2018-05-24T21:06:12.558Z,102047.83
2018-05-24T21:08:40.688Z,102045.14
2018-05-24T21:11:09.220Z,102041.30
2018-05-24T21:13:37.487Z,102045.24
2018-05-24T21:16:05.587Z,102048.58
2018-05-24T21:18:33.687Z,102043.67
2018-05-24T21:21:01.227Z,102046.46
2018-05-24T21:23:28.770Z,102046.87
2018-05-24T21:25:56.772Z,102045.71
2018-05-24T21:28:27.509Z,102052.06
2018-05-24T21:30:56.003Z,102046.51
2018-05-24T21:33:23.586Z,102051.40
2018-05-24T21:35:51.732Z,102055.52
2018-05-24T21:38:19.282Z,102053.34
2018-05-24T21:40:47.649Z,102052.89
2018-05-24T21:43:16.321Z,102057.14
2018-05-24T21:45:43.859Z,102054.20
2018-05-24T21:48:11.399Z,102059.40
2018-05-24T21:50:39.020Z,102057.09
2018-05-24T21:53:06.590Z,102060.80
2018-05-24T21:55:34.154Z,102068.05
2018-05-24T21:58:01.861Z,102076.53
2018-05-24T22:00:29.517Z,102076.39
2018-05-24T22:02:57.052Z,102079.48
2018-05-24T22:05:25.210Z,102074.03
2018-05-24T22:07:53.425Z,102074.61
2018-05-24T22:10:21.504Z,102079.12
2018-05-24T22:12:49.073Z,102076.27
2018-05-24T22:15:17.082Z,102081.31
2018-05-24T22:17:44.619Z,102082.80
2018-05-24T22:20:13.083Z,102082.82
2018-05-24T22:22:40.647Z,102084.97
2018-05-24T22:25:08.880Z,102081.91
2018-05-24T22:27:37.083Z,102089.13
2018-05-24T22:30:05.427Z,102083.88
2018-05-24T22:32:32.967Z,102080.78
2018-05-24T22:35:00.502Z,102084.56
2018-05-24T22:37:28.719Z,102079.70
2018-05-24T22:39:56.255Z,102088.29
2018-05-24T22:42:23.855Z,102085.00
2018-05-24T22:44:51.431Z,102084.20
2018-05-24T22:47:18.976Z,102083.79
2018-05-24T22:49:46.747Z,102082.30
2018-05-24T22:52:14.317Z,102084.71
2018-05-24T22:54:41.847Z,102086.66
2018-05-24T22:57:09.387Z,102080.90
2018-05-24T22:59:36.966Z,102081.86
2018-05-24T23:02:04.564Z,102090.92
2018-05-24T23:04:32.256Z,102081.28
2018-05-24T23:07:00.404Z,102081.94
2018-05-24T23:09:28.443Z,102076.77
2018-05-24T23:11:56.518Z,102066.34
2018-05-24T23:14:25.032Z,102067.50
2018-05-24T23:16:52.574Z,102070.13
2018-05-24T23:19:21.339Z,102060.50
2018-05-24T23:21:48.884Z,102062.94
2018-05-24T23:24:17.066Z,102070.64
2018-05-24T23:26:45.221Z,102066.96
2018-05-24T23:29:13.445Z,102061.16
2018-05-24T23:31:41.509Z,102067.63
2018-05-24T23:34:09.056Z,102070.36
2018-05-24T23:36:37.308Z,102067.70
2018-05-24T23:39:05.739Z,102065.41
2018-05-24T23:41:33.320Z,102057.27
2018-05-24T23:44:00.956Z,102063.02
2018-05-24T23:46:28.473Z,102061.94
2018-05-24T23:48:56.019Z,102064.30
2018-05-24T23:54:55.212Z,102063.71
2018-05-24T23:57:22.889Z,102059.02
2018-05-24T23:59:50.809Z,102065.50
